sensor_id;sensor_type;location;lat;lon;timestamp;pressure;altitude;pressure_sealevel;temperature
73761;BMP280;69240;43.530;-5.646;2023-05-07T18:36:53;102182.72;;;18.76
73761;BMP280;69240;43.530;-5.646;2023-05-07T18:39:31;102183.72;;;18.58
73761;BMP280;69240;43.530;-5.646;2023-05-07T18:45:27;102196.84;;;17.91
73761;BMP280;69240;43.530;-5.646;2023-05-07T18:47:54;102186.03;;;17.76
73761;BMP280;69240;43.530;-5.646;2023-05-07T18:50:22;102189.22;;;17.60
73761;BMP280;69240;43.530;-5.646;2023-05-07T18:52:47;102190.16;;;17.58
73761;BMP280;69240;43.530;-5.646;2023-05-07T18:55:13;102202.59;;;17.64
73761;BMP280;69240;43.530;-5.646;2023-05-07T18:57:38;102206.41;;;17.58
73761;BMP280;69240;43.530;-5.646;2023-05-07T19:00:04;102216.81;;;17.64
73761;BMP280;69240;43.530;-5.646;2023-05-07T19:02:30;102218.69;;;17.44
73761;BMP280;69240;43.530;-5.646;2023-05-07T19:04:56;102220.19;;;17.45
73761;BMP280;69240;43.530;-5.646;2023-05-07T19:07:21;102225.22;;;17.52
73761;BMP280;69240;43.530;-5.646;2023-05-07T19:13:10;102230.44;;;17.41
73761;BMP280;69240;43.530;-5.646;2023-05-07T19:15:36;102235.13;;;17.41
73761;BMP280;69240;43.530;-5.646;2023-05-07T19:18:02;102239.81;;;17.40
73761;BMP280;69240;43.530;-5.646;2023-05-07T19:20:28;102250.56;;;17.26
73761;BMP280;69240;43.530;-5.646;2023-05-07T19:22:54;102259.31;;;17.21
73761;BMP280;69240;43.530;-5.646;2023-05-07T19:25:19;102252.47;;;17.34
73761;BMP280;69240;43.530;-5.646;2023-05-07T19:27:45;102256.16;;;17.22
73761;BMP280;69240;43.530;-5.646;2023-05-07T19:33:35;102266.94;;;17.08
73761;BMP280;69240;43.530;-5.646;2023-05-07T19:41:04;102281.78;;;16.89
73761;BMP280;69240;43.530;-5.646;2023-05-07T19:43:45;102287.50;;;16.82
73761;BMP280;69240;43.530;-5.646;2023-05-07T19:46:12;102287.59;;;16.96
73761;BMP280;69240;43.530;-5.646;2023-05-07T19:48:47;102285.34;;;16.95
73761;BMP280;69240;43.530;-5.646;2023-05-07T19:51:13;102293.91;;;16.93
73761;BMP280;69240;43.530;-5.646;2023-05-07T19:53:39;102293.47;;;16.95
73761;BMP280;69240;43.530;-5.646;2023-05-07T19:56:06;102291.53;;;16.95
73761;BMP280;69240;43.530;-5.646;2023-05-07T19:58:32;102298.00;;;16.89
73761;BMP280;69240;43.530;-5.646;2023-05-07T20:00:58;102297.66;;;16.96
73761;BMP280;69240;43.530;-5.646;2023-05-07T20:03:25;102290.19;;;16.91
73761;BMP280;69240;43.530;-5.646;2023-05-07T20:05:52;102297.41;;;16.85
73761;BMP280;69240;43.530;-5.646;2023-05-07T20:08:20;102301.03;;;16.82
73761;BMP280;69240;43.530;-5.646;2023-05-07T20:10:49;102297.88;;;16.83
73761;BMP280;69240;43.530;-5.646;2023-05-07T20:13:15;102291.44;;;16.81
73761;BMP280;69240;43.530;-5.646;2023-05-07T20:15:41;102298.03;;;16.80
73761;BMP280;69240;43.530;-5.646;2023-05-07T20:23:30;102297.78;;;16.69
73761;BMP280;69240;43.530;-5.646;2023-05-07T20:25:57;102311.31;;;16.69
73761;BMP280;69240;43.530;-5.646;2023-05-07T20:28:22;102304.56;;;16.64
73761;BMP280;69240;43.530;-5.646;2023-05-07T20:30:48;102312.22;;;16.66
73761;BMP280;69240;43.530;-5.646;2023-05-07T20:33:14;102316.28;;;16.61
73761;BMP280;69240;43.530;-5.646;2023-05-07T20:35:40;102321.84;;;16.58
73761;BMP280;69240;43.530;-5.646;2023-05-07T20:38:05;102329.69;;;16.56
73761;BMP280;69240;43.530;-5.646;2023-05-07T20:40:31;102330.59;;;16.53
73761;BMP280;69240;43.530;-5.646;2023-05-07T20:42:59;102337.50;;;16.54
73761;BMP280;69240;43.530;-5.646;2023-05-07T20:45:24;102333.31;;;16.53
73761;BMP280;69240;43.530;-5.646;2023-05-07T20:47:50;102341.75;;;16.46
73761;BMP280;69240;43.530;-5.646;2023-05-07T20:50:16;102344.13;;;16.44
73761;BMP280;69240;43.530;-5.646;2023-05-07T20:52:41;102353.44;;;16.43
73761;BMP280;69240;43.530;-5.646;2023-05-07T20:55:07;102361.25;;;16.41
73761;BMP280;69240;43.530;-5.646;2023-05-07T20:57:33;102359.44;;;16.38
73761;BMP280;69240;43.530;-5.646;2023-05-07T20:59:58;102352.56;;;16.37
73761;BMP280;69240;43.530;-5.646;2023-05-07T21:02:29;102350.16;;;16.30
73761;BMP280;69240;43.530;-5.646;2023-05-07T21:04:55;102350.16;;;16.30
73761;BMP280;69240;43.530;-5.646;2023-05-07T21:07:20;102352.59;;;16.28
73761;BMP280;69240;43.530;-5.646;2023-05-07T21:09:46;102350.78;;;16.16
73761;BMP280;69240;43.530;-5.646;2023-05-07T21:12:11;102345.72;;;16.09
73761;BMP280;69240;43.530;-5.646;2023-05-07T21:14:37;102339.84;;;16.01
73761;BMP280;69240;43.530;-5.646;2023-05-07T21:17:04;102341.66;;;16.04
73761;BMP280;69240;43.530;-5.646;2023-05-07T21:19:31;102342.38;;;16.05
73761;BMP280;69240;43.530;-5.646;2023-05-07T21:21:57;102333.69;;;16.01
73761;BMP280;69240;43.530;-5.646;2023-05-07T21:24:23;102334.03;;;15.94
73761;BMP280;69240;43.530;-5.646;2023-05-07T21:26:49;102330.41;;;15.97
73761;BMP280;69240;43.530;-5.646;2023-05-07T21:29:15;102335.81;;;15.88
73761;BMP280;69240;43.530;-5.646;2023-05-07T21:31:40;102337.31;;;15.89
73761;BMP280;69240;43.530;-5.646;2023-05-07T21:34:06;102341.22;;;15.88
73761;BMP280;69240;43.530;-5.646;2023-05-07T21:36:34;102348.41;;;15.82
73761;BMP280;69240;43.530;-5.646;2023-05-07T21:39:00;102345.72;;;15.82
73761;BMP280;69240;43.530;-5.646;2023-05-07T21:41:25;102340.44;;;15.78
73761;BMP280;69240;43.530;-5.646;2023-05-07T21:43:52;102350.22;;;15.76
73761;BMP280;69240;43.530;-5.646;2023-05-07T21:46:17;102346.28;;;15.68
73761;BMP280;69240;43.530;-5.646;2023-05-07T21:48:43;102346.00;;;15.66
73761;BMP280;69240;43.530;-5.646;2023-05-07T21:51:09;102342.56;;;15.56
73761;BMP280;69240;43.530;-5.646;2023-05-07T21:53:35;102334.56;;;15.53
73761;BMP280;69240;43.530;-5.646;2023-05-07T21:56:00;102330.38;;;15.52
73761;BMP280;69240;43.530;-5.646;2023-05-07T21:58:29;102333.66;;;15.47
73761;BMP280;69240;43.530;-5.646;2023-05-07T22:00:59;102320.19;;;15.38
73761;BMP280;69240;43.530;-5.646;2023-05-07T22:03:25;102331.75;;;15.38
73761;BMP280;69240;43.530;-5.646;2023-05-07T22:05:51;102323.78;;;15.35
73761;BMP280;69240;43.530;-5.646;2023-05-07T22:08:16;102325.84;;;15.31
73761;BMP280;69240;43.530;-5.646;2023-05-07T22:10:42;102332.91;;;15.28
73761;BMP280;69240;43.530;-5.646;2023-05-07T22:13:07;102335.72;;;15.25
73761;BMP280;69240;43.530;-5.646;2023-05-07T22:15:33;102333.19;;;15.30
73761;BMP280;69240;43.530;-5.646;2023-05-07T22:17:58;102331.88;;;15.35
73761;BMP280;69240;43.530;-5.646;2023-05-07T22:20:24;102327.09;;;15.39
73761;BMP280;69240;43.530;-5.646;2023-05-07T22:22:54;102326.75;;;15.37
73761;BMP280;69240;43.530;-5.646;2023-05-07T22:25:21;102332.16;;;15.28
73761;BMP280;69240;43.530;-5.646;2023-05-07T22:27:48;102328.69;;;15.18
73761;BMP280;69240;43.530;-5.646;2023-05-07T22:30:14;102332.44;;;15.21
73761;BMP280;69240;43.530;-5.646;2023-05-07T22:32:43;102328.22;;;15.20
73761;BMP280;69240;43.530;-5.646;2023-05-07T22:35:09;102337.50;;;15.19
73761;BMP280;69240;43.530;-5.646;2023-05-07T22:37:36;102342.00;;;15.13
73761;BMP280;69240;43.530;-5.646;2023-05-07T22:40:02;102324.47;;;15.08
73761;BMP280;69240;43.530;-5.646;2023-05-07T22:42:28;102324.59;;;15.05
73761;BMP280;69240;43.530;-5.646;2023-05-07T22:44:54;102321.56;;;15.03
73761;BMP280;69240;43.530;-5.646;2023-05-07T22:47:23;102321.00;;;14.99
73761;BMP280;69240;43.530;-5.646;2023-05-07T22:49:49;102326.06;;;14.97
73761;BMP280;69240;43.530;-5.646;2023-05-07T22:52:15;102316.78;;;14.98
73761;BMP280;69240;43.530;-5.646;2023-05-07T22:54:40;102315.84;;;14.92
73761;BMP280;69240;43.530;-5.646;2023-05-07T22:57:06;102314.97;;;14.95
73761;BMP280;69240;43.530;-5.646;2023-05-07T22:59:32;102317.06;;;14.91
73761;BMP280;69240;43.530;-5.646;2023-05-07T23:01:58;102314.63;;;14.84
73761;BMP280;69240;43.530;-5.646;2023-05-07T23:04:23;102317.91;;;14.79
73761;BMP280;69240;43.530;-5.646;2023-05-07T23:06:49;102323.28;;;14.79
73761;BMP280;69240;43.530;-5.646;2023-05-07T23:09:14;102330.19;;;14.80
73761;BMP280;69240;43.530;-5.646;2023-05-07T23:11:40;102335.84;;;14.73
73761;BMP280;69240;43.530;-5.646;2023-05-07T23:14:06;102350.09;;;14.82
73761;BMP280;69240;43.530;-5.646;2023-05-07T23:16:31;102334.94;;;14.76
73761;BMP280;69240;43.530;-5.646;2023-05-07T23:18:57;102345.13;;;14.72
73761;BMP280;69240;43.530;-5.646;2023-05-07T23:21:23;102335.78;;;14.64
73761;BMP280;69240;43.530;-5.646;2023-05-07T23:23:48;102345.06;;;14.63
73761;BMP280;69240;43.530;-5.646;2023-05-07T23:26:15;102337.69;;;14.54
73761;BMP280;69240;43.530;-5.646;2023-05-07T23:28:41;102344.13;;;14.57
73761;BMP280;69240;43.530;-5.646;2023-05-07T23:31:07;102347.47;;;14.61
73761;BMP280;69240;43.530;-5.646;2023-05-07T23:33:33;102351.94;;;14.64
73761;BMP280;69240;43.530;-5.646;2023-05-07T23:35:59;102341.88;;;14.55
73761;BMP280;69240;43.530;-5.646;2023-05-07T23:38:25;102338.13;;;14.53
73761;BMP280;69240;43.530;-5.646;2023-05-07T23:40:54;102334.00;;;14.61
73761;BMP280;69240;43.530;-5.646;2023-05-07T23:43:20;102335.88;;;14.51
73761;BMP280;69240;43.530;-5.646;2023-05-07T23:45:46;102334.50;;;14.47
73761;BMP280;69240;43.530;-5.646;2023-05-07T23:48:11;102339.09;;;14.37
73761;BMP280;69240;43.530;-5.646;2023-05-07T23:50:37;102339.38;;;14.39
73761;BMP280;69240;43.530;-5.646;2023-05-07T23:53:03;102334.88;;;14.36
73761;BMP280;69240;43.530;-5.646;2023-05-07T23:55:28;102343.53;;;14.31
73761;BMP280;69240;43.530;-5.646;2023-05-07T23:57:54;102343.81;;;14.33
